createdAt,value
2018-04-28T00:02:50.133Z,9.24
2018-04-28T00:12:45.231Z,9.34
2018-04-28T00:22:42.692Z,9.20
2018-04-28T00:32:40.285Z,9.27
2018-04-28T00:42:36.988Z,9.16
2018-04-28T00:52:35.487Z,9.16
2018-04-28T01:02:33.950Z,9.12
2018-04-28T01:12:27.635Z,9.12
2018-04-28T01:22:25.542Z,8.90
2018-04-28T01:32:23.366Z,8.85
2018-04-28T01:42:20.662Z,8.84
2018-04-28T01:52:16.414Z,8.70
2018-04-28T02:02:10.008Z,8.72
2018-04-28T02:12:07.455Z,8.58
2018-04-28T02:22:04.964Z,8.60
2018-04-28T02:31:59.971Z,8.33
2018-04-28T02:42:05.962Z,8.39
2018-04-28T02:52:02.544Z,8.36
2018-04-28T03:02:00.671Z,8.39
2018-04-28T03:11:58.008Z,8.24
2018-04-28T03:21:53.279Z,8.24
2018-04-28T03:31:52.359Z,8.27
2018-04-28T03:41:49.782Z,8.24
2018-04-28T03:51:45.569Z,8.25
2018-04-28T04:01:43.060Z,8.18
2018-04-28T04:11:41.391Z,8.22
2018-04-28T04:21:35.844Z,8.27
2018-04-28T04:31:33.216Z,8.15
2018-04-28T04:41:30.354Z,8.37
2018-04-28T04:51:27.670Z,8.82
2018-04-28T05:01:24.223Z,9.06
2018-04-28T05:11:22.927Z,9.46
2018-04-28T05:21:19.268Z,9.82
2018-04-28T05:31:13.396Z,10.16
2018-04-28T05:41:11.256Z,10.56
2018-04-28T05:51:06.934Z,11.06
2018-04-28T06:01:02.276Z,11.49
2018-04-28T06:11:00.734Z,11.90
2018-04-28T06:20:59.554Z,12.30
2018-04-28T06:30:58.855Z,12.81
2018-04-28T06:40:56.105Z,13.17
2018-04-28T06:50:52.552Z,13.65
2018-04-28T07:00:52.099Z,14.13
2018-04-28T07:10:49.604Z,14.46
2018-04-28T07:20:45.110Z,14.98
2018-04-28T07:30:42.396Z,15.48
2018-04-28T07:40:37.719Z,15.97
2018-04-28T07:50:33.824Z,16.30
2018-04-28T08:00:16.384Z,16.59
2018-04-28T08:10:13.886Z,16.80
2018-04-28T08:20:10.751Z,17.29
2018-04-28T08:30:10.129Z,17.73
2018-04-28T08:40:07.102Z,18.02
2018-04-28T08:50:05.610Z,18.27
2018-04-28T09:00:02.777Z,18.73
2018-04-28T09:10:01.624Z,19.06
2018-04-28T09:19:47.203Z,19.32
2018-04-28T09:29:30.277Z,19.58
2018-04-28T09:39:27.599Z,19.94
2018-04-28T09:49:22.249Z,20.20
2018-04-28T09:59:18.650Z,20.71
2018-04-28T10:09:14.737Z,20.84
2018-04-28T10:19:11.626Z,21.20
2018-04-28T10:29:10.920Z,21.63
2018-04-28T10:38:49.375Z,22.10
2018-04-28T10:48:46.441Z,22.65
2018-04-28T10:58:24.690Z,23.20
2018-04-28T11:08:03.025Z,23.58
2018-04-28T11:17:40.896Z,23.87
2018-04-28T11:27:19.490Z,24.40
2018-04-28T11:36:57.854Z,27.02
2018-04-28T11:46:36.189Z,27.12
2018-04-28T11:56:14.070Z,26.68
2018-04-28T12:05:51.392Z,26.24
2018-04-28T12:15:28.833Z,26.02
2018-04-28T12:25:06.492Z,25.87
2018-04-28T12:34:44.131Z,26.04
2018-04-28T12:44:26.754Z,26.47
2018-04-28T12:53:57.213Z,27.16
2018-04-28T13:03:39.445Z,27.62
2018-04-28T13:13:10.432Z,29.38
2018-04-28T13:22:53.426Z,30.59
2018-04-28T13:32:27.850Z,31.26
2018-04-28T13:42:03.563Z,31.46
2018-04-28T13:51:37.679Z,30.97
2018-04-28T14:01:05.595Z,30.30
2018-04-28T14:10:48.851Z,30.11
2018-04-28T14:20:20.717Z,29.22
2018-04-28T14:29:47.538Z,28.66
2018-04-28T14:39:24.608Z,27.83
2018-04-28T14:48:58.878Z,27.01
2018-04-28T14:58:35.419Z,26.82
2018-04-28T15:08:13.894Z,26.67
2018-04-28T15:17:52.370Z,27.34
2018-04-28T15:27:34.926Z,28.29
2018-04-28T15:37:07.429Z,27.01
2018-04-28T15:46:39.421Z,25.22
2018-04-28T15:56:14.075Z,24.60
2018-04-28T16:05:50.619Z,24.44
2018-04-28T16:15:46.774Z,23.83
2018-04-28T16:25:42.736Z,23.09
2018-04-28T16:35:37.313Z,23.20
2018-04-28T16:45:35.272Z,21.14
2018-04-28T16:55:30.033Z,19.78
2018-04-28T17:05:25.363Z,19.38
2018-04-28T17:15:22.125Z,19.25
2018-04-28T17:25:17.728Z,18.46
2018-04-28T17:35:11.884Z,18.03
2018-04-28T17:45:09.403Z,17.47
2018-04-28T17:55:06.422Z,16.84
2018-04-28T18:05:01.103Z,16.62
2018-04-28T18:14:56.342Z,16.38
2018-04-28T18:24:52.894Z,15.97
2018-04-28T18:34:48.702Z,15.76
2018-04-28T18:44:46.072Z,15.43
2018-04-28T18:54:42.025Z,15.30
2018-04-28T19:04:39.507Z,15.23
2018-04-28T19:14:36.767Z,14.94
2018-04-28T19:24:31.491Z,14.84
2018-04-28T19:34:28.307Z,14.67
2018-04-28T19:44:25.582Z,14.56
2018-04-28T19:54:21.726Z,14.35
2018-04-28T20:04:16.327Z,14.16
2018-04-28T20:14:13.142Z,14.23
2018-04-28T20:24:09.080Z,13.83
2018-04-28T20:34:03.634Z,13.86
2018-04-28T20:44:01.356Z,13.80
2018-04-28T20:53:57.833Z,13.74
2018-04-28T21:03:55.049Z,13.58
2018-04-28T21:13:52.925Z,13.48
2018-04-28T21:23:49.226Z,13.18
2018-04-28T21:33:43.440Z,13.07
2018-04-28T21:43:41.312Z,12.82
2018-04-28T21:53:40.056Z,12.92
2018-04-28T22:03:36.958Z,12.81
2018-04-28T22:13:33.460Z,12.64
2018-04-28T22:23:32.017Z,12.59
2018-04-28T22:33:29.099Z,12.48
2018-04-28T22:43:25.667Z,12.24
2018-04-28T22:53:21.493Z,12.31
2018-04-28T23:03:19.306Z,12.19
2018-04-28T23:13:16.475Z,12.24
2018-04-28T23:23:12.815Z,12.05
2018-04-28T23:33:07.790Z,12.06
2018-04-28T23:43:06.822Z,11.84
2018-04-28T23:53:04.529Z,11.79
